Time;durP1;ratioP1;P1;durP2;ratioP2;P2;SDS_P1;SDS_P2;PMS_P1;PMS_P2;Temp;Humidity;BMP_temperature;BMP_pressure;BME280_temperature;BME280_humidity;BME280_pressure;Samples;Min_cycle;Max_cycle;Signal;HPM_P1;HPM_P2
2021/06/28 00:19:56;;;;;;;2.47;2.28;;;;;;;22.43;61.94;95519.00;4857649;29;20234;-86
2021/06/28 01:01:06;;;;;;;;;;;;;;;;;;;;;
2021/06/28 01:04:34;;;;;;;;;;;;;;;;;;;;;
2021/06/28 01:11:33;;;;;;;2.72;1.80;;;;;;;22.46;59.66;95529.00;4731505;30;20314;-87
2021/06/28 01:36:11;;;;;;;;;;;;;;;;;;;;;
2021/06/28 01:59:23;;;;;;;;;;;;;;;;;;;;;
2021/06/28 04:34:57;;;;;;;;;;;;;;;;;;;;;
2021/06/28 04:52:25;;;;;;;;;;;;;;;;;;;;;
2021/06/28 05:06:16;;;;;;;2.95;2.40;;;;;;;22.84;64.00;95574.41;4858759;29;20238;-88
2021/06/28 05:11:56;;;;;;;6.05;2.20;;;;;;;22.95;63.65;95574.22;4941386;28;20231;-83
2021/06/28 05:14:26;;;;;;;2.33;2.20;;;;;;;23.02;63.80;95574.00;5024776;28;20227;-86
2021/06/28 05:16:53;;;;;;;2.40;2.20;;;;;;;23.05;63.30;95571.66;5092351;28;20567;-84
2021/06/28 05:19:20;;;;;;;5.05;2.53;;;;;;;23.04;63.82;95580.56;5094412;28;20201;-84
2021/06/28 05:21:47;;;;;;;3.67;2.50;;;;;;;23.13;63.71;95574.81;5106027;28;20198;-82
2021/06/28 05:24:13;;;;;;;2.97;2.28;;;;;;;23.18;63.86;95575.63;5100857;28;20211;-82
2021/06/28 05:26:40;;;;;;;2.15;2.05;;;;;;;23.27;63.51;95570.69;5096302;28;20200;-83
2021/06/28 05:29:06;;;;;;;2.50;2.30;;;;;;;23.27;63.42;95573.34;5096061;28;20260;-83
2021/06/28 05:31:33;;;;;;;3.67;2.58;;;;;;;23.21;64.25;95561.22;5102049;28;20219;-83
2021/06/28 05:33:59;;;;;;;2.58;2.38;;;;;;;23.23;64.15;95565.16;5100951;28;20184;-85
2021/06/28 05:36:27;;;;;;;6.70;6.10;;;;;;;23.34;63.96;95568.63;5093074;28;20216;-83
2021/06/28 05:38:54;;;;;;;5.45;4.80;;;;;;;23.45;63.60;95567.63;5090535;28;20258;-84
2021/06/28 05:41:23;;;;;;;3.00;2.72;;;;;;;23.48;63.54;95568.91;5093533;28;20254;-84
2021/06/28 05:43:50;;;;;;;2.70;2.50;;;;;;;23.58;63.13;95561.91;5102920;28;20191;-86
2021/06/28 05:46:19;;;;;;;2.97;2.40;;;;;;;23.61;62.90;95566.66;5099166;28;20214;-84
2021/06/28 05:48:54;;;;;;;5.18;2.75;;;;;;;23.57;63.21;95562.94;5093879;28;20290;-86
2021/06/28 05:51:38;;;;;;;2.90;2.70;;;;;;;23.58;63.62;95561.13;5090677;28;20231;-87
2021/06/28 05:54:09;;;;;;;3.00;2.70;;;;;;;23.64;62.92;95557.47;5091849;28;20291;-85
2021/06/28 05:56:38;;;;;;;3.03;2.55;;;;;;;23.69;63.33;95560.88;5084687;28;20223;-86
2021/06/28 05:59:07;;;;;;;2.70;2.50;;;;;;;23.77;62.81;95559.59;5096323;28;20212;-87
2021/06/28 06:01:41;;;;;;;3.25;3.00;;;;;;;23.72;62.54;95563.00;5095679;28;20291;-85
2021/06/28 06:04:13;;;;;;;3.28;2.70;;;;;;;23.77;62.50;95560.38;5100687;28;20200;-87
2021/06/28 06:06:45;;;;;;;3.00;2.80;;;;;;;23.87;61.77;95556.97;5097398;28;20196;-84
2021/06/28 06:09:13;;;;;;;3.92;3.30;;;;;;;23.88;61.85;95557.75;5096306;28;20283;-86
2021/06/28 06:11:42;;;;;;;5.22;4.40;;;;;;;23.89;62.13;95565.38;5097067;28;20204;-86
2021/06/28 06:14:09;;;;;;;2.70;2.50;;;;;;;23.87;62.67;95567.47;5097227;28;20204;-84
2021/06/28 06:16:44;;;;;;;4.97;3.00;;;;;;;23.90;62.62;95572.22;5097918;28;20228;-82
2021/06/28 06:19:14;;;;;;;3.13;2.92;;;;;;;23.90;62.46;95574.06;5101283;28;20733;-85
2021/06/28 06:21:45;;;;;;;3.10;2.90;;;;;;;24.01;62.15;95570.41;5097990;28;20231;-82
2021/06/28 06:24:14;;;;;;;3.45;3.15;;;;;;;24.07;62.02;95571.97;5100270;28;20202;-82
2021/06/28 06:26:41;;;;;;;4.22;3.20;;;;;;;24.10;61.64;95571.47;5098064;28;20204;-83
2021/06/28 06:29:08;;;;;;;3.67;3.38;;;;;;;24.18;61.22;95570.16;5098056;28;20679;-82
2021/06/28 06:31:45;;;;;;;3.03;2.83;;;;;;;24.27;60.85;95574.66;5098089;28;20789;-84
2021/06/28 06:34:14;;;;;;;3.75;3.20;;;;;;;24.32;60.88;95574.69;5100037;28;20196;-83
2021/06/28 06:36:51;;;;;;;3.58;3.08;;;;;;;24.34;61.04;95579.69;5100563;28;20204;-82
2021/06/28 06:39:21;;;;;;;3.45;3.15;;;;;;;24.36;61.08;95578.38;5100292;28;20257;-84
2021/06/28 06:41:48;;;;;;;3.15;2.95;;;;;;;24.39;60.84;95577.06;5100067;28;20215;-83
2021/06/28 06:44:34;;;;;;;3.17;2.88;;;;;;;24.38;61.11;95581.53;5097721;28;20197;-83
2021/06/28 06:47:04;;;;;;;3.00;2.80;;;;;;;24.42;60.82;95573.91;5094793;28;20268;-85
2021/06/28 06:49:31;;;;;;;3.15;2.85;;;;;;;24.50;61.06;95578.63;5099547;28;20566;-81
2021/06/28 06:52:15;;;;;;;2.80;2.60;;;;;;;24.61;61.05;95582.84;5096256;28;20200;-84
2021/06/28 06:55:09;;;;;;;;;;;;;;;;;;;;;
2021/06/28 06:58:08;;;;;;;3.05;2.85;;;;;;;24.66;60.66;95577.56;5045038;28;20321;-82
2021/06/28 07:00:39;;;;;;;4.38;2.78;;;;;;;24.58;61.26;95582.59;5053845;28;20276;-85
2021/06/28 07:03:06;;;;;;;3.50;3.20;;;;;;;24.66;60.83;95587.28;5056213;28;20213;-83
2021/06/28 07:05:33;;;;;;;2.90;2.70;;;;;;;24.70;61.36;95583.09;5046151;28;20210;-84
2021/06/28 07:08:05;;;;;;;3.38;3.08;;;;;;;24.68;61.30;95590.47;5035545;28;20202;-84
2021/06/28 07:13:52;;;;;;;2.88;2.67;;;;;;;24.65;57.96;95581.25;4936282;28;20239;-83
2021/06/28 07:16:24;;;;;;;3.00;2.70;;;;;;;24.60;57.81;95573.38;5037893;28;20276;-85
2021/06/28 07:19:00;;;;;;;4.32;2.90;;;;;;;24.54;58.61;95565.72;5033942;28;20780;-85
2021/06/28 07:21:30;;;;;;;3.08;2.88;;;;;;;24.53;58.54;95561.50;5033642;28;20201;-86
2021/06/28 07:24:00;;;;;;;4.03;2.63;;;;;;;24.58;59.66;95564.16;5038929;28;20198;-83
2021/06/28 07:26:27;;;;;;;15.05;13.60;;;;;;;24.66;58.67;95561.75;5039479;28;20318;-85
2021/06/28 07:29:00;;;;;;;3.97;3.58;;;;;;;24.70;58.29;95562.81;5033581;28;20190;-85
2021/06/28 07:31:27;;;;;;;3.03;2.78;;;;;;;24.80;57.43;95567.28;5033236;28;20205;-85
2021/06/28 07:33:58;;;;;;;2.75;2.60;;;;;;;24.84;57.60;95554.34;5031628;28;20283;-85
2021/06/28 07:36:28;;;;;;;4.25;2.55;;;;;;;24.94;56.37;95557.78;5035926;28;20613;-85
2021/06/28 07:39:04;;;;;;;2.90;2.45;;;;;;;24.94;56.15;95555.16;5034694;28;20218;-85
2021/06/28 07:41:34;;;;;;;4.43;2.60;;;;;;;25.07;57.23;95556.44;5035991;28;20232;-86
2021/06/28 07:44:08;;;;;;;3.38;2.70;;;;;;;25.12;57.18;95551.94;5032662;28;20288;-85
2021/06/28 07:46:35;;;;;;;3.00;2.80;;;;;;;25.31;56.88;95554.00;5036517;28;20266;-86
2021/06/28 07:49:02;;;;;;;2.53;2.30;;;;;;;25.29;52.75;95559.53;5037316;28;20201;-84
2021/06/28 07:51:30;;;;;;;2.45;2.25;;;;;;;25.35;52.83;95555.03;5034999;28;20458;-82
2021/06/28 07:53:59;;;;;;;2.42;2.20;;;;;;;25.27;51.59;95552.94;5035267;28;20226;-86
2021/06/28 07:56:39;;;;;;;3.03;2.13;;;;;;;25.31;52.13;95548.72;5036148;28;20225;-85
2021/06/28 07:59:18;;;;;;;3.47;2.50;;;;;;;25.40;51.94;95555.00;5044521;28;20281;-84
2021/06/28 08:02:06;;;;;;;4.70;2.42;;;;;;;25.52;51.83;95539.66;5050252;28;20208;-85
2021/06/28 08:04:33;;;;;;;2.65;2.45;;;;;;;25.61;52.68;95542.50;5043917;28;20588;-86
2021/06/28 08:07:00;;;;;;;3.00;2.70;;;;;;;25.71;53.29;95542.50;5037648;28;20289;-86
2021/06/28 08:09:28;;;;;;;2.65;2.47;;;;;;;25.83;53.30;95542.16;5043828;28;20205;-86
2021/06/28 08:12:07;;;;;;;2.75;2.55;;;;;;;25.91;52.32;95541.56;5032478;28;20442;-87
2021/06/28 08:14:42;;;;;;;5.15;2.67;;;;;;;26.06;51.90;95538.81;5029838;28;20312;-84
2021/06/28 08:17:18;;;;;;;2.72;2.53;;;;;;;26.17;51.08;95545.59;5045939;28;20287;-85
2021/06/28 08:19:49;;;;;;;2.60;2.40;;;;;;;26.19;51.97;95537.41;5039500;28;20212;-85
2021/06/28 08:29:02;;;;;;;2.85;2.15;;;;;;;26.40;49.15;95529.06;5027423;28;20210;-85
2021/06/28 08:34:39;;;;;;;2.50;2.17;;;;;;;26.65;49.59;95514.84;5034992;28;20217;-86
2021/06/28 08:37:09;;;;;;;4.00;2.30;;;;;;;26.76;49.32;95515.53;5050148;28;20206;-85
2021/06/28 08:39:57;;;;;;;4.03;2.40;;;;;;;26.94;49.51;95516.69;5017719;28;20203;-85
2021/06/28 08:49:10;;;;;;;2.80;2.60;;;;;;;27.39;48.04;95515.38;5012335;28;20201;-85
2021/06/28 08:51:43;;;;;;;2.40;2.20;;;;;;;27.52;47.14;95504.06;5034060;28;20206;-85
2021/06/28 08:54:31;;;;;;;2.30;2.20;;;;;;;27.68;46.35;95510.78;5032061;28;20245;-84
2021/06/28 08:57:22;;;;;;;;;;;;;;;;;;;;;
2021/06/28 09:00:13;;;;;;;;;;;;;;;;;;;;;
2021/06/28 09:06:00;;;;;;;3.22;2.08;;;;;;;27.77;44.66;95509.06;5040659;28;20221;-86
2021/06/28 09:08:34;;;;;;;2.47;2.20;;;;;;;27.78;45.00;95513.28;5054211;28;20193;-85
2021/06/28 09:11:05;;;;;;;17.48;15.82;;;;;;;27.80;45.39;95505.84;5062481;28;20216;-85
2021/06/28 09:13:45;;;;;;;5.38;3.10;;;;;;;27.81;45.15;95512.69;5060135;28;20243;-84
2021/06/28 09:16:29;;;;;;;3.45;2.70;;;;;;;27.98;45.14;95504.25;5053594;28;20793;-85
2021/06/28 09:19:16;;;;;;;2.60;2.40;;;;;;;28.22;43.35;95503.38;5060245;28;20194;-84
2021/06/28 09:25:23;;;;;;;3.88;2.22;;;;;;;28.54;43.13;95517.38;5049130;28;20268;-85
2021/06/28 09:27:53;;;;;;;2.00;1.90;;;;;;;28.56;43.21;95516.31;5035717;28;20201;-84
2021/06/28 09:30:49;;;;;;;2.10;2.00;;;;;;;28.68;42.79;95516.63;5034955;28;20198;-85
2021/06/28 09:39:29;;;;;;;2.50;1.90;;;;;;;28.86;41.93;95505.97;5021830;28;20277;-85
2021/06/28 09:42:24;;;;;;;2.60;1.77;;;;;;;29.08;42.05;95513.25;5035880;28;20742;-85
2021/06/28 09:45:28;;;;;;;3.38;2.22;;;;;;;29.30;42.99;95511.75;4931098;29;20300;-85
2021/06/28 09:48:16;;;;;;;2.65;2.20;;;;;;;29.25;42.70;95511.88;5033582;28;20624;-85
2021/06/28 10:18:10;;;;;;;1.95;1.83;;;;;;;29.89;38.63;95492.97;5070042;22;20229;-87
2021/06/28 10:41:01;;;;;;;;;;;;;;;;;;;;;
2021/06/28 10:44:28;;;;;;;;;;;;;;;;;;;;;
2021/06/28 10:47:30;;;;;;;1.90;1.80;;;;;;;30.55;39.98;95453.44;4796364;29;20217;-86
2021/06/28 10:53:53;;;;;;;2.13;1.90;;;;;;;30.75;39.08;95457.41;4849590;29;20243;-86
2021/06/28 10:56:46;;;;;;;5.18;1.90;;;;;;;30.76;39.45;95446.47;4843662;29;20235;-84
2021/06/28 11:00:06;;;;;;;2.25;1.70;;;;;;;30.68;38.04;95441.13;4866057;29;20591;-83
2021/06/28 11:03:20;;;;;;;1.80;1.70;;;;;;;30.73;39.41;95440.97;4961674;28;20208;-83
2021/06/28 11:06:21;;;;;;;2.25;1.45;;;;;;;30.66;39.04;95436.09;4989944;28;20238;-84
2021/06/28 11:09:01;;;;;;;1.52;1.42;;;;;;;30.85;38.64;95433.19;4990811;28;20671;-84
2021/06/28 11:12:00;;;;;;;2.55;1.80;;;;;;;30.99;37.41;95433.84;4998736;28;20731;-84
2021/06/28 11:14:49;;;;;;;1.67;1.58;;;;;;;31.07;36.72;95425.13;5010403;28;20233;-84
2021/06/28 11:17:39;;;;;;;1.65;1.55;;;;;;;31.09;38.02;95422.16;5009971;28;20774;-84
2021/06/28 11:20:28;;;;;;;2.55;1.73;;;;;;;31.20;36.95;95423.44;5011996;28;20225;-84
2021/06/28 11:26:01;;;;;;;2.10;2.00;;;;;;;31.12;37.77;95410.91;4998045;28;20226;-88
2021/06/28 11:28:37;;;;;;;1.50;1.40;;;;;;;31.06;35.57;95404.94;5010976;28;20273;-87
2021/06/28 11:31:10;;;;;;;2.00;1.83;;;;;;;31.09;37.41;95400.88;5010408;28;20474;-83
2021/06/28 11:34:10;;;;;;;1.60;1.50;;;;;;;31.19;36.45;95400.59;5010092;28;20219;-86
2021/06/28 11:39:31;;;;;;;1.70;1.60;;;;;;;31.15;37.43;95399.66;4946907;29;20287;-84
2021/06/28 11:42:40;;;;;;;4.35;1.58;;;;;;;31.09;36.29;95399.00;4993263;28;20231;-84
2021/06/28 11:45:10;;;;;;;2.28;1.63;;;;;;;30.89;36.22;95395.03;4991284;28;20330;-86
2021/06/28 11:48:16;;;;;;;2.13;1.50;;;;;;;30.98;36.98;95389.75;5005595;28;20207;-84
2021/06/28 11:50:43;;;;;;;1.70;1.60;;;;;;;31.18;37.04;95383.84;5011552;28;20568;-84
2021/06/28 11:53:20;;;;;;;2.35;1.60;;;;;;;31.08;35.85;95386.78;5010734;28;20331;-86
2021/06/28 11:55:48;;;;;;;1.40;1.40;;;;;;;31.22;36.35;95376.81;5009376;28;20238;-83
2021/06/28 11:58:16;;;;;;;3.65;1.70;;;;;;;31.28;35.95;95387.28;5003623;28;20210;-83
2021/06/28 12:00:44;;;;;;;1.70;1.60;;;;;;;31.32;35.83;95383.72;5004892;28;20203;-85
2021/06/28 12:03:12;;;;;;;1.70;1.60;;;;;;;31.49;35.66;95380.25;5009457;28;20585;-83
2021/06/28 12:05:40;;;;;;;1.92;1.52;;;;;;;31.34;35.42;95383.41;5003865;28;20257;-84
2021/06/28 12:08:09;;;;;;;2.83;1.80;;;;;;;31.29;36.29;95378.22;5004074;28;20212;-84
2021/06/28 12:11:11;;;;;;;1.60;1.50;;;;;;;31.31;35.88;95382.13;5011058;28;20662;-88
2021/06/28 12:13:41;;;;;;;1.55;1.45;;;;;;;31.54;35.57;95369.47;5002462;28;20225;-87
2021/06/28 12:16:16;;;;;;;1.67;1.58;;;;;;;31.57;35.68;95371.47;5005516;28;20210;-84
2021/06/28 12:18:50;;;;;;;1.50;1.40;;;;;;;31.64;35.68;95369.13;5009122;28;20210;-84
2021/06/28 12:21:27;;;;;;;1.70;1.60;;;;;;;31.77;36.52;95373.50;5007381;28;20641;-83
2021/06/28 12:24:11;;;;;;;1.63;1.52;;;;;;;31.84;36.98;95368.50;5009221;28;20225;-84
2021/06/28 12:26:45;;;;;;;2.47;1.40;;;;;;;31.98;36.30;95360.31;5008330;28;20253;-84
2021/06/28 12:29:32;;;;;;;4.13;1.65;;;;;;;32.00;36.53;95358.09;5009452;28;20233;-84
2021/06/28 12:32:23;;;;;;;1.50;1.40;;;;;;;32.00;34.87;95362.66;5012317;28;20194;-83
2021/06/28 12:34:58;;;;;;;1.60;1.50;;;;;;;31.80;35.58;95361.44;5003102;28;20305;-84
2021/06/28 12:37:52;;;;;;;1.65;1.55;;;;;;;31.84;36.16;95362.38;5014234;28;20286;-84
2021/06/28 12:40:20;;;;;;;1.60;1.50;;;;;;;31.94;36.09;95370.06;5014461;28;20241;-84
2021/06/28 12:43:32;;;;;;;;;;;;;;;;;;;;;
2021/06/28 12:46:38;;;;;;;1.85;1.55;;;;;;;32.15;35.62;95362.13;4950894;29;20227;-86
2021/06/28 12:49:22;;;;;;;1.60;1.50;;;;;;;32.19;36.52;95363.84;4954162;28;20239;-86
2021/06/28 12:59:32;;;;;;;1.70;1.60;;;;;;;32.10;35.70;95368.44;4965389;28;20798;-89
2021/06/28 13:08:37;;;;;;;1.85;1.55;;;;;;;32.06;36.22;95359.50;4950957;28;20210;-85
2021/06/28 13:21:58;;;;;;;2.58;1.58;;;;;;;31.96;37.00;95367.03;4997530;28;20686;-86
2021/06/28 13:27:53;;;;;;;1.85;1.75;;;;;;;32.00;37.66;95349.31;5000012;28;20231;-86
2021/06/28 13:30:35;;;;;;;2.95;1.70;;;;;;;31.99;38.92;95350.44;4891487;29;20223;-85
2021/06/28 13:51:08;;;;;;;4.15;1.58;;;;;;;32.11;38.35;95330.03;4742647;30;20232;-89
2021/06/28 15:09:54;;;;;;;1.38;1.27;;;;;;;31.49;38.84;95293.19;4889999;29;20221;-90
2021/06/28 15:18:26;;;;;;;6.82;5.25;;;;;;;31.14;39.64;95292.47;4970834;28;20200;-88
2021/06/28 15:34:40;;;;;;;3.53;1.88;;;;;;;31.21;39.90;95281.34;4816462;29;20209;-89
2021/06/28 15:37:10;;;;;;;1.92;1.63;;;;;;;31.35;39.46;95276.66;4845104;29;20195;-87
2021/06/28 15:42:38;;;;;;;1.77;1.50;;;;;;;31.22;38.51;95261.63;4927490;29;20205;-87
2021/06/28 15:47:53;;;;;;;2.67;1.35;;;;;;;31.18;38.27;95269.44;5016764;28;20213;-88
2021/06/28 15:53:55;;;;;;;1.52;1.42;;;;;;;30.78;37.87;95252.09;5022432;28;20695;-88
2021/06/28 16:00:17;;;;;;;1.60;1.50;;;;;;;30.51;38.22;95243.28;4927865;29;20249;-88
2021/06/28 16:02:45;;;;;;;3.33;1.70;;;;;;;30.61;38.53;95230.78;4998481;28;20675;-88
2021/06/28 16:09:09;;;;;;;2.95;1.45;;;;;;;30.63;37.90;95228.59;4924730;28;20218;-88
2021/06/28 16:12:16;;;;;;;1.60;1.50;;;;;;;30.60;37.58;95213.31;4934789;28;20204;-87
2021/06/28 16:18:29;;;;;;;7.28;6.57;;;;;;;30.61;38.79;95202.34;4822544;29;20244;-87
